sensor_id;sensor_type;location;lat;lon;timestamp;pressure;altitude;pressure_sealevel;temperature;humidity
65718;BME280;52445;52.466;-1.016;2023-07-31T00:01:23;99175.94;;;17.41;73.20
65718;BME280;52445;52.466;-1.016;2023-07-31T00:03:49;99170.69;;;17.41;74.19
65718;BME280;52445;52.466;-1.016;2023-07-31T00:06:16;99167.16;;;17.42;73.31
65718;BME280;52445;52.466;-1.016;2023-07-31T00:08:43;99164.41;;;17.45;74.08
65718;BME280;52445;52.466;-1.016;2023-07-31T00:11:10;99157.38;;;17.46;73.33
65718;BME280;52445;52.466;-1.016;2023-07-31T00:13:37;99154.69;;;17.47;73.97
65718;BME280;52445;52.466;-1.016;2023-07-31T00:16:04;99148.69;;;17.45;73.62
65718;BME280;52445;52.466;-1.016;2023-07-31T00:18:30;99147.72;;;17.48;73.17
65718;BME280;52445;52.466;-1.016;2023-07-31T00:20:57;99146.84;;;17.47;73.26
65718;BME280;52445;52.466;-1.016;2023-07-31T00:23:24;99140.00;;;17.45;73.71
65718;BME280;52445;52.466;-1.016;2023-07-31T00:25:52;99133.94;;;17.44;73.46
65718;BME280;52445;52.466;-1.016;2023-07-31T00:28:20;99124.28;;;17.45;73.45
65718;BME280;52445;52.466;-1.016;2023-07-31T00:30:48;99119.91;;;17.45;74.22
65718;BME280;52445;52.466;-1.016;2023-07-31T00:33:16;99126.06;;;17.44;73.50
65718;BME280;52445;52.466;-1.016;2023-07-31T00:35:44;99116.38;;;17.46;73.70
65718;BME280;52445;52.466;-1.016;2023-07-31T00:38:13;99106.75;;;17.47;74.03
65718;BME280;52445;52.466;-1.016;2023-07-31T00:40:43;99104.22;;;17.45;73.51
65718;BME280;52445;52.466;-1.016;2023-07-31T00:43:12;99107.59;;;17.47;74.10
65718;BME280;52445;52.466;-1.016;2023-07-31T00:45:40;99097.13;;;17.47;73.87
65718;BME280;52445;52.466;-1.016;2023-07-31T00:48:08;99099.72;;;17.47;74.41
65718;BME280;52445;52.466;-1.016;2023-07-31T00:50:36;99105.75;;;17.50;74.03
65718;BME280;52445;52.466;-1.016;2023-07-31T00:53:03;99107.44;;;17.51;74.16
65718;BME280;52445;52.466;-1.016;2023-07-31T00:55:31;99111.00;;;17.50;74.34
65718;BME280;52445;52.466;-1.016;2023-07-31T00:57:58;99103.13;;;17.50;73.82
65718;BME280;52445;52.466;-1.016;2023-07-31T01:00:26;99109.13;;;17.52;73.57
65718;BME280;52445;52.466;-1.016;2023-07-31T01:02:54;99108.25;;;17.53;73.61
65718;BME280;52445;52.466;-1.016;2023-07-31T01:05:33;99113.41;;;17.54;74.38
65718;BME280;52445;52.466;-1.016;2023-07-31T01:10:50;99098.38;;;17.58;74.35
65718;BME280;52445;52.466;-1.016;2023-07-31T01:13:21;99089.59;;;17.59;73.65
65718;BME280;52445;52.466;-1.016;2023-07-31T01:15:48;99083.41;;;17.62;73.80
65718;BME280;52445;52.466;-1.016;2023-07-31T01:18:15;99084.22;;;17.62;74.29
65718;BME280;52445;52.466;-1.016;2023-07-31T01:20:42;99077.22;;;17.63;74.26
65718;BME280;52445;52.466;-1.016;2023-07-31T01:23:35;99073.91;;;17.59;73.99
65718;BME280;52445;52.466;-1.016;2023-07-31T01:26:12;99061.59;;;17.61;74.22
65718;BME280;52445;52.466;-1.016;2023-07-31T01:28:53;99064.22;;;17.61;74.61
65718;BME280;52445;52.466;-1.016;2023-07-31T01:31:23;99052.81;;;17.62;74.13
65718;BME280;52445;52.466;-1.016;2023-07-31T01:33:53;99048.38;;;17.64;73.93
65718;BME280;52445;52.466;-1.016;2023-07-31T01:36:21;99048.44;;;17.63;73.91
65718;BME280;52445;52.466;-1.016;2023-07-31T01:38:48;99044.03;;;17.63;74.79
65718;BME280;52445;52.466;-1.016;2023-07-31T01:41:17;99033.56;;;17.63;74.54
65718;BME280;52445;52.466;-1.016;2023-07-31T01:43:45;99042.34;;;17.62;74.37
65718;BME280;52445;52.466;-1.016;2023-07-31T01:46:11;99041.50;;;17.62;74.73
65718;BME280;52445;52.466;-1.016;2023-07-31T01:48:38;99044.03;;;17.63;75.16
65718;BME280;52445;52.466;-1.016;2023-07-31T01:51:05;99035.28;;;17.64;75.00
65718;BME280;52445;52.466;-1.016;2023-07-31T01:53:32;99042.19;;;17.65;74.82
65718;BME280;52445;52.466;-1.016;2023-07-31T01:55:59;99033.41;;;17.66;74.45
65718;BME280;52445;52.466;-1.016;2023-07-31T01:58:26;99029.78;;;17.69;74.56
65718;BME280;52445;52.466;-1.016;2023-07-31T02:00:53;99034.13;;;17.70;74.94
65718;BME280;52445;52.466;-1.016;2023-07-31T02:03:19;99029.72;;;17.70;74.69
65718;BME280;52445;52.466;-1.016;2023-07-31T02:05:48;99026.19;;;17.71;74.77
65718;BME280;52445;52.466;-1.016;2023-07-31T02:08:15;99023.56;;;17.71;75.27
65718;BME280;52445;52.466;-1.016;2023-07-31T02:10:42;99033.13;;;17.72;74.92
65718;BME280;52445;52.466;-1.016;2023-07-31T02:13:09;99033.13;;;17.72;74.85
65718;BME280;52445;52.466;-1.016;2023-07-31T02:15:36;99024.34;;;17.73;75.35
65718;BME280;52445;52.466;-1.016;2023-07-31T02:18:03;99007.69;;;17.75;74.81
65718;BME280;52445;52.466;-1.016;2023-07-31T02:20:33;99015.41;;;17.78;75.34
65718;BME280;52445;52.466;-1.016;2023-07-31T02:23:01;99006.63;;;17.79;75.64
65718;BME280;52445;52.466;-1.016;2023-07-31T02:25:27;99007.41;;;17.81;75.10
65718;BME280;52445;52.466;-1.016;2023-07-31T02:27:54;99016.94;;;17.82;75.55
65718;BME280;52445;52.466;-1.016;2023-07-31T02:30:21;99013.41;;;17.83;75.04
65718;BME280;52445;52.466;-1.016;2023-07-31T02:32:48;99009.88;;;17.84;75.42
65718;BME280;52445;52.466;-1.016;2023-07-31T02:35:14;99016.81;;;17.85;75.38
65718;BME280;52445;52.466;-1.016;2023-07-31T02:37:42;99016.81;;;17.85;75.22
65718;BME280;52445;52.466;-1.016;2023-07-31T02:40:09;99008.94;;;17.85;74.93
65718;BME280;52445;52.466;-1.016;2023-07-31T02:42:36;99002.84;;;17.84;75.63
65718;BME280;52445;52.466;-1.016;2023-07-31T02:45:03;99005.38;;;17.86;75.85
65718;BME280;52445;52.466;-1.016;2023-07-31T02:47:30;99021.09;;;17.86;75.46
65718;BME280;52445;52.466;-1.016;2023-07-31T02:49:57;99008.00;;;17.86;75.17
65718;BME280;52445;52.466;-1.016;2023-07-31T02:52:24;99009.72;;;17.87;75.71
65718;BME280;52445;52.466;-1.016;2023-07-31T02:54:50;99006.19;;;17.88;75.69
65718;BME280;52445;52.466;-1.016;2023-07-31T02:57:17;99008.72;;;17.90;75.23
65718;BME280;52445;52.466;-1.016;2023-07-31T02:59:44;99013.97;;;17.90;75.71
65718;BME280;52445;52.466;-1.016;2023-07-31T03:02:10;99013.97;;;17.90;75.99
65718;BME280;52445;52.466;-1.016;2023-07-31T03:04:39;99011.28;;;17.91;75.92
65718;BME280;52445;52.466;-1.016;2023-07-31T03:07:05;99007.72;;;17.92;75.71
65718;BME280;52445;52.466;-1.016;2023-07-31T03:09:32;99003.34;;;17.93;75.92
65718;BME280;52445;52.466;-1.016;2023-07-31T03:11:59;98993.69;;;17.93;75.64
65718;BME280;52445;52.466;-1.016;2023-07-31T03:14:26;98993.69;;;17.93;75.75
65718;BME280;52445;52.466;-1.016;2023-07-31T03:16:53;98992.84;;;17.93;76.07
65718;BME280;52445;52.466;-1.016;2023-07-31T03:19:20;98988.44;;;17.93;75.61
65718;BME280;52445;52.466;-1.016;2023-07-31T03:21:47;98990.13;;;17.94;75.88
65718;BME280;52445;52.466;-1.016;2023-07-31T03:24:13;98979.66;;;17.94;75.72
65718;BME280;52445;52.466;-1.016;2023-07-31T03:26:40;98983.06;;;17.96;76.09
65718;BME280;52445;52.466;-1.016;2023-07-31T03:29:08;98977.81;;;17.96;76.29
65718;BME280;52445;52.466;-1.016;2023-07-31T03:31:35;98977.81;;;17.96;76.04
65718;BME280;52445;52.466;-1.016;2023-07-31T03:34:02;98977.81;;;17.96;76.20
65718;BME280;52445;52.466;-1.016;2023-07-31T03:36:28;98972.50;;;17.98;75.90
65718;BME280;52445;52.466;-1.016;2023-07-31T03:38:55;98954.16;;;17.98;76.32
65718;BME280;52445;52.466;-1.016;2023-07-31T03:41:22;98960.25;;;17.98;76.33
65718;BME280;52445;52.466;-1.016;2023-07-31T03:43:50;98962.97;;;17.97;76.56
65718;BME280;52445;52.466;-1.016;2023-07-31T03:46:18;98967.19;;;17.99;75.65
65718;BME280;52445;52.466;-1.016;2023-07-31T03:48:45;98968.88;;;18.01;76.26
65718;BME280;52445;52.466;-1.016;2023-07-31T03:51:12;98961.03;;;18.01;75.52
65718;BME280;52445;52.466;-1.016;2023-07-31T03:53:39;98971.41;;;18.02;76.19
65718;BME280;52445;52.466;-1.016;2023-07-31T03:56:05;98973.09;;;18.03;76.23
65718;BME280;52445;52.466;-1.016;2023-07-31T03:58:32;98968.72;;;18.04;75.93
65718;BME280;52445;52.466;-1.016;2023-07-31T04:00:59;98959.94;;;18.05;76.33
65718;BME280;52445;52.466;-1.016;2023-07-31T04:03:25;98961.63;;;18.06;76.25
65718;BME280;52445;52.466;-1.016;2023-07-31T04:05:54;98961.63;;;18.06;75.93
65718;BME280;52445;52.466;-1.016;2023-07-31T04:08:22;98960.72;;;18.07;76.09
65718;BME280;52445;52.466;-1.016;2023-07-31T04:10:50;98965.03;;;18.08;75.99
65718;BME280;52445;52.466;-1.016;2023-07-31T04:13:17;98951.00;;;18.09;76.20
65718;BME280;52445;52.466;-1.016;2023-07-31T04:15:48;98959.66;;;18.11;76.67
65718;BME280;52445;52.466;-1.016;2023-07-31T04:18:16;98953.63;;;18.09;76.32
65718;BME280;52445;52.466;-1.016;2023-07-31T04:20:44;98954.53;;;18.08;76.53
65718;BME280;52445;52.466;-1.016;2023-07-31T04:23:11;98961.50;;;18.09;76.54
65718;BME280;52445;52.466;-1.016;2023-07-31T04:25:37;98957.94;;;18.10;76.17
65718;BME280;52445;52.466;-1.016;2023-07-31T04:28:04;98968.44;;;18.10;76.54
65718;BME280;52445;52.466;-1.016;2023-07-31T04:30:31;98970.16;;;18.11;76.50
65718;BME280;52445;52.466;-1.016;2023-07-31T04:32:58;98970.00;;;18.14;75.98
65718;BME280;52445;52.466;-1.016;2023-07-31T04:35:24;98964.75;;;18.14;76.28
65718;BME280;52445;52.466;-1.016;2023-07-31T04:37:51;98968.13;;;18.16;76.18
65718;BME280;52445;52.466;-1.016;2023-07-31T04:40:18;98971.53;;;18.18;76.46
65718;BME280;52445;52.466;-1.016;2023-07-31T04:42:45;98973.22;;;18.19;76.92
65718;BME280;52445;52.466;-1.016;2023-07-31T04:45:12;98964.50;;;18.19;76.88
65718;BME280;52445;52.466;-1.016;2023-07-31T04:47:39;98964.41;;;18.20;76.29
65718;BME280;52445;52.466;-1.016;2023-07-31T04:50:06;98964.25;;;18.23;76.60
65718;BME280;52445;52.466;-1.016;2023-07-31T04:52:33;98960.78;;;18.23;76.56
65718;BME280;52445;52.466;-1.016;2023-07-31T04:55:00;98962.56;;;18.22;76.65
65718;BME280;52445;52.466;-1.016;2023-07-31T04:57:27;98960.84;;;18.21;76.83
65718;BME280;52445;52.466;-1.016;2023-07-31T04:59:54;98960.69;;;18.24;76.50
65718;BME280;52445;52.466;-1.016;2023-07-31T05:02:21;98965.94;;;18.24;76.14
65718;BME280;52445;52.466;-1.016;2023-07-31T05:04:48;98967.63;;;18.26;76.62
65718;BME280;52445;52.466;-1.016;2023-07-31T05:07:14;98972.88;;;18.26;76.85
65718;BME280;52445;52.466;-1.016;2023-07-31T05:09:41;98972.88;;;18.26;76.18
65718;BME280;52445;52.466;-1.016;2023-07-31T05:12:08;98976.34;;;18.26;76.16
65718;BME280;52445;52.466;-1.016;2023-07-31T05:14:35;98976.28;;;18.28;76.23
65718;BME280;52445;52.466;-1.016;2023-07-31T05:17:01;98978.91;;;18.28;76.51
65718;BME280;52445;52.466;-1.016;2023-07-31T05:19:28;98979.84;;;18.27;76.44
65718;BME280;52445;52.466;-1.016;2023-07-31T05:21:55;98983.34;;;18.26;76.53
65718;BME280;52445;52.466;-1.016;2023-07-31T05:24:21;98979.84;;;18.27;76.70
65718;BME280;52445;52.466;-1.016;2023-07-31T05:26:48;98985.97;;;18.26;76.78
65718;BME280;52445;52.466;-1.016;2023-07-31T05:29:15;98981.59;;;18.26;76.87
65718;BME280;52445;52.466;-1.016;2023-07-31T05:31:43;98980.84;;;18.24;76.53
65718;BME280;52445;52.466;-1.016;2023-07-31T05:34:10;98973.06;;;18.22;76.70
65718;BME280;52445;52.466;-1.016;2023-07-31T05:36:36;98976.44;;;18.24;76.57
65718;BME280;52445;52.466;-1.016;2023-07-31T05:39:03;98974.75;;;18.23;76.99
65718;BME280;52445;52.466;-1.016;2023-07-31T05:41:35;98979.97;;;18.23;76.57
65718;BME280;52445;52.466;-1.016;2023-07-31T05:44:02;98983.34;;;18.26;76.66
65718;BME280;52445;52.466;-1.016;2023-07-31T05:46:29;98985.06;;;18.27;76.72
65718;BME280;52445;52.466;-1.016;2023-07-31T05:48:58;98974.59;;;18.27;76.69
65718;BME280;52445;52.466;-1.016;2023-07-31T05:51:27;98984.13;;;18.28;77.05
65718;BME280;52445;52.466;-1.016;2023-07-31T05:53:54;98978.81;;;18.29;77.05
65718;BME280;52445;52.466;-1.016;2023-07-31T05:56:21;98993.59;;;18.30;76.34
65718;BME280;52445;52.466;-1.016;2023-07-31T05:58:48;98984.91;;;18.30;76.20
65718;BME280;52445;52.466;-1.016;2023-07-31T06:01:16;98992.69;;;18.31;76.44
65718;BME280;52445;52.466;-1.016;2023-07-31T06:03:43;98989.97;;;18.33;76.91
65718;BME280;52445;52.466;-1.016;2023-07-31T06:06:11;98996.75;;;18.37;77.00
65718;BME280;52445;52.466;-1.016;2023-07-31T06:08:37;98991.19;;;18.43;76.88
65718;BME280;52445;52.466;-1.016;2023-07-31T06:11:04;98995.94;;;18.53;76.79
65718;BME280;52445;52.466;-1.016;2023-07-31T06:13:32;98988.88;;;18.55;76.63
65718;BME280;52445;52.466;-1.016;2023-07-31T06:15:59;98982.69;;;18.56;75.96
65718;BME280;52445;52.466;-1.016;2023-07-31T06:18:26;98973.13;;;18.55;76.57
65718;BME280;52445;52.466;-1.016;2023-07-31T06:20:53;98974.81;;;18.56;76.18
65718;BME280;52445;52.466;-1.016;2023-07-31T06:23:20;98965.19;;;18.56;75.94
65718;BME280;52445;52.466;-1.016;2023-07-31T06:25:47;98959.09;;;18.56;75.83
65718;BME280;52445;52.466;-1.016;2023-07-31T06:28:14;98948.59;;;18.56;76.22
65718;BME280;52445;52.466;-1.016;2023-07-31T06:30:41;98947.78;;;18.55;76.33
65718;BME280;52445;52.466;-1.016;2023-07-31T06:33:07;98945.16;;;18.55;76.34
65718;BME280;52445;52.466;-1.016;2023-07-31T06:35:35;98946.91;;;18.55;75.69
65718;BME280;52445;52.466;-1.016;2023-07-31T06:38:02;98952.06;;;18.56;75.96
65718;BME280;52445;52.466;-1.016;2023-07-31T06:40:30;98949.53;;;18.55;75.70
65718;BME280;52445;52.466;-1.016;2023-07-31T06:42:56;98951.22;;;18.56;75.89
65718;BME280;52445;52.466;-1.016;2023-07-31T06:45:23;98949.38;;;18.58;75.89
65718;BME280;52445;52.466;-1.016;2023-07-31T06:47:50;98936.09;;;18.61;75.39
65718;BME280;52445;52.466;-1.016;2023-07-31T06:50:17;98932.53;;;18.62;75.73
65718;BME280;52445;52.466;-1.016;2023-07-31T06:52:44;98937.78;;;18.62;75.81
65718;BME280;52445;52.466;-1.016;2023-07-31T06:55:20;98934.22;;;18.63;75.31
65718;BME280;52445;52.466;-1.016;2023-07-31T06:57:49;98944.56;;;18.66;75.66
65718;BME280;52445;52.466;-1.016;2023-07-31T07:00:16;98958.41;;;18.68;75.15
65718;BME280;52445;52.466;-1.016;2023-07-31T07:02:43;98952.25;;;18.69;75.09
65718;BME280;52445;52.466;-1.016;2023-07-31T07:05:10;98953.00;;;18.71;74.88
65718;BME280;52445;52.466;-1.016;2023-07-31T07:07:38;98956.41;;;18.73;75.11
65718;BME280;52445;52.466;-1.016;2023-07-31T07:10:05;98955.91;;;18.67;75.11
65718;BME280;52445;52.466;-1.016;2023-07-31T07:12:32;98954.72;;;18.72;75.15
65718;BME280;52445;52.466;-1.016;2023-07-31T07:15:00;98954.53;;;18.75;75.02
65718;BME280;52445;52.466;-1.016;2023-07-31T07:17:28;98954.38;;;18.79;74.88
65718;BME280;52445;52.466;-1.016;2023-07-31T07:19:58;98958.53;;;18.83;74.46
65718;BME280;52445;52.466;-1.016;2023-07-31T07:22:25;98960.22;;;18.84;74.39
65718;BME280;52445;52.466;-1.016;2023-07-31T07:24:52;98953.13;;;18.86;74.84
65718;BME280;52445;52.466;-1.016;2023-07-31T07:27:19;98957.25;;;18.90;74.70
65718;BME280;52445;52.466;-1.016;2023-07-31T07:29:46;98958.78;;;18.94;74.13
65718;BME280;52445;52.466;-1.016;2023-07-31T07:32:13;98953.22;;;19.00;74.28
65718;BME280;52445;52.466;-1.016;2023-07-31T07:34:40;98944.91;;;19.08;73.86
65718;BME280;52445;52.466;-1.016;2023-07-31T07:37:07;98948.81;;;19.17;73.95
65718;BME280;52445;52.466;-1.016;2023-07-31T07:39:34;98953.53;;;19.26;74.15
65718;BME280;52445;52.466;-1.016;2023-07-31T07:42:03;98941.00;;;19.32;73.91
65718;BME280;52445;52.466;-1.016;2023-07-31T07:44:30;98940.66;;;19.38;73.73
65718;BME280;52445;52.466;-1.016;2023-07-31T07:46:57;98939.66;;;19.41;73.23
65718;BME280;52445;52.466;-1.016;2023-07-31T07:49:24;98940.47;;;19.41;73.47
65718;BME280;52445;52.466;-1.016;2023-07-31T07:51:51;98940.47;;;19.41;73.44
65718;BME280;52445;52.466;-1.016;2023-07-31T07:54:18;98931.94;;;19.37;73.14
65718;BME280;52445;52.466;-1.016;2023-07-31T07:56:48;98923.97;;;19.39;73.29
65718;BME280;52445;52.466;-1.016;2023-07-31T07:59:16;98900.34;;;19.39;73.16
65718;BME280;52445;52.466;-1.016;2023-07-31T08:01:43;98896.78;;;19.40;73.02
65718;BME280;52445;52.466;-1.016;2023-07-31T08:04:10;98897.63;;;19.41;73.02
65718;BME280;52445;52.466;-1.016;2023-07-31T08:06:37;98901.88;;;19.43;72.43
65718;BME280;52445;52.466;-1.016;2023-07-31T08:09:04;98911.41;;;19.44;72.09
65718;BME280;52445;52.466;-1.016;2023-07-31T08:11:33;98912.00;;;19.49;72.41
65718;BME280;52445;52.466;-1.016;2023-07-31T08:14:05;98920.63;;;19.51;72.23
65718;BME280;52445;52.466;-1.016;2023-07-31T08:16:32;98929.25;;;19.53;72.12
65718;BME280;52445;52.466;-1.016;2023-07-31T08:18:58;98924.84;;;19.54;71.71
65718;BME280;52445;52.466;-1.016;2023-07-31T08:21:25;98932.81;;;19.52;71.69
65718;BME280;52445;52.466;-1.016;2023-07-31T08:23:52;98946.91;;;19.51;71.37
65718;BME280;52445;52.466;-1.016;2023-07-31T08:26:20;98933.94;;;19.48;71.17
65718;BME280;52445;52.466;-1.016;2023-07-31T08:28:47;98928.84;;;19.45;70.91
65718;BME280;52445;52.466;-1.016;2023-07-31T08:31:16;98919.28;;;19.44;71.31
65718;BME280;52445;52.466;-1.016;2023-07-31T08:33:44;98905.59;;;19.39;70.95
65718;BME280;52445;52.466;-1.016;2023-07-31T08:36:11;98909.13;;;19.38;70.91
65718;BME280;52445;52.466;-1.016;2023-07-31T08:38:38;98918.13;;;19.34;71.08
65718;BME280;52445;52.466;-1.016;2023-07-31T08:41:05;98912.13;;;19.32;70.66
65718;BME280;52445;52.466;-1.016;2023-07-31T08:43:32;98906.13;;;19.30;70.76
65718;BME280;52445;52.466;-1.016;2023-07-31T08:46:00;98920.84;;;19.32;70.54
65718;BME280;52445;52.466;-1.016;2023-07-31T08:48:29;98923.28;;;19.35;70.55
65718;BME280;52445;52.466;-1.016;2023-07-31T08:50:55;98920.59;;;19.37;70.52
65718;BME280;52445;52.466;-1.016;2023-07-31T08:53:22;98927.25;;;19.43;70.29
65718;BME280;52445;52.466;-1.016;2023-07-31T08:55:49;98925.31;;;19.46;70.80
65718;BME280;52445;52.466;-1.016;2023-07-31T08:58:17;98909.44;;;19.48;70.22
65718;BME280;52445;52.466;-1.016;2023-07-31T09:00:46;98908.63;;;19.47;70.42
65718;BME280;52445;52.466;-1.016;2023-07-31T09:03:15;98908.44;;;19.50;69.82
65718;BME280;52445;52.466;-1.016;2023-07-31T09:05:45;98916.22;;;19.52;69.85
65718;BME280;52445;52.466;-1.016;2023-07-31T09:08:15;98924.94;;;19.52;69.86
65718;BME280;52445;52.466;-1.016;2023-07-31T09:10:45;98929.25;;;19.53;69.69
65718;BME280;52445;52.466;-1.016;2023-07-31T09:13:14;98920.47;;;19.55;69.54
65718;BME280;52445;52.466;-1.016;2023-07-31T09:15:43;98921.97;;;19.59;70.12
65718;BME280;52445;52.466;-1.016;2023-07-31T09:18:11;98917.47;;;19.61;69.49
65718;BME280;52445;52.466;-1.016;2023-07-31T09:20:38;98913.91;;;19.62;69.57
65718;BME280;52445;52.466;-1.016;2023-07-31T09:25:44;98916.16;;;19.68;69.11
65718;BME280;52445;52.466;-1.016;2023-07-31T09:28:11;98910.75;;;19.71;69.29
65718;BME280;52445;52.466;-1.016;2023-07-31T09:30:54;98902.84;;;19.71;69.37
65718;BME280;52445;52.466;-1.016;2023-07-31T09:33:21;98917.50;;;19.75;68.85
65718;BME280;52445;52.466;-1.016;2023-07-31T09:35:47;98910.47;;;19.76;69.25
65718;BME280;52445;52.466;-1.016;2023-07-31T09:38:15;98906.06;;;19.76;69.29
65718;BME280;52445;52.466;-1.016;2023-07-31T09:40:44;98907.56;;;19.81;69.22
65718;BME280;52445;52.466;-1.016;2023-07-31T09:43:13;98904.94;;;19.81;68.91
65718;BME280;52445;52.466;-1.016;2023-07-31T09:45:44;98909.19;;;19.83;68.87
65718;BME280;52445;52.466;-1.016;2023-07-31T09:48:16;98914.22;;;19.86;68.64
65718;BME280;52445;52.466;-1.016;2023-07-31T09:50:46;98920.34;;;19.87;68.94
65718;BME280;52445;52.466;-1.016;2023-07-31T09:53:14;98929.72;;;19.91;68.61
65718;BME280;52445;52.466;-1.016;2023-07-31T09:55:41;98916.22;;;19.97;68.92
65718;BME280;52445;52.466;-1.016;2023-07-31T09:58:12;98905.53;;;20.00;68.75
65718;BME280;52445;52.466;-1.016;2023-07-31T10:00:40;98913.06;;;20.07;69.19
65718;BME280;52445;52.466;-1.016;2023-07-31T10:03:08;98906.50;;;20.14;68.66
65718;BME280;52445;52.466;-1.016;2023-07-31T10:05:40;98906.13;;;20.20;68.92
65718;BME280;52445;52.466;-1.016;2023-07-31T10:08:09;98895.22;;;20.26;68.68
65718;BME280;52445;52.466;-1.016;2023-07-31T10:10:37;98883.59;;;20.31;68.49
65718;BME280;52445;52.466;-1.016;2023-07-31T10:13:07;98879.53;;;20.39;68.43
65718;BME280;52445;52.466;-1.016;2023-07-31T10:15:36;98893.72;;;20.51;68.23
65718;BME280;52445;52.466;-1.016;2023-07-31T10:18:05;98892.94;;;20.64;68.32
65718;BME280;52445;52.466;-1.016;2023-07-31T10:20:33;98897.41;;;20.76;68.46
65718;BME280;52445;52.466;-1.016;2023-07-31T10:23:01;98882.16;;;20.81;67.76
65718;BME280;52445;52.466;-1.016;2023-07-31T10:25:27;98888.19;;;20.84;67.67
65718;BME280;52445;52.466;-1.016;2023-07-31T10:27:55;98899.09;;;20.77;67.08
65718;BME280;52445;52.466;-1.016;2023-07-31T10:30:27;98898.66;;;20.71;67.20
65718;BME280;52445;52.466;-1.016;2023-07-31T10:32:54;98900.66;;;20.67;67.04
65718;BME280;52445;52.466;-1.016;2023-07-31T10:35:22;98907.22;;;20.60;66.92
65718;BME280;52445;52.466;-1.016;2023-07-31T10:37:49;98902.34;;;20.53;67.34
65718;BME280;52445;52.466;-1.016;2023-07-31T10:40:17;98895.03;;;20.44;66.86
65718;BME280;52445;52.466;-1.016;2023-07-31T10:45:30;98911.19;;;20.38;67.09
65718;BME280;52445;52.466;-1.016;2023-07-31T10:48:06;98917.41;;;20.37;66.94
65718;BME280;52445;52.466;-1.016;2023-07-31T10:50:38;98929.78;;;20.35;67.16
65718;BME280;52445;52.466;-1.016;2023-07-31T10:53:05;98928.00;;;20.35;67.08
65718;BME280;52445;52.466;-1.016;2023-07-31T10:55:39;98933.34;;;20.34;66.98
65718;BME280;52445;52.466;-1.016;2023-07-31T10:58:08;98931.66;;;20.33;67.15
65718;BME280;52445;52.466;-1.016;2023-07-31T11:00:38;98929.78;;;20.35;66.71
65718;BME280;52445;52.466;-1.016;2023-07-31T11:08:21;98915.53;;;20.24;66.57
65718;BME280;52445;52.466;-1.016;2023-07-31T11:10:51;98909.78;;;20.17;65.58
65718;BME280;52445;52.466;-1.016;2023-07-31T11:13:18;98905.91;;;19.94;65.66
65718;BME280;52445;52.466;-1.016;2023-07-31T11:15:48;98914.38;;;19.99;65.01
65718;BME280;52445;52.466;-1.016;2023-07-31T11:18:14;98931.13;;;19.97;65.06
65718;BME280;52445;52.466;-1.016;2023-07-31T11:20:43;98928.03;;;19.90;65.19
65718;BME280;52445;52.466;-1.016;2023-07-31T11:23:10;98922.03;;;19.88;65.02
65718;BME280;52445;52.466;-1.016;2023-07-31T11:25:38;98938.72;;;19.87;64.83
65718;BME280;52445;52.466;-1.016;2023-07-31T11:28:11;98944.06;;;19.85;64.89
65718;BME280;52445;52.466;-1.016;2023-07-31T11:30:39;98942.47;;;19.83;65.07
65718;BME280;52445;52.466;-1.016;2023-07-31T11:33:09;98941.91;;;19.77;64.80
65718;BME280;52445;52.466;-1.016;2023-07-31T11:35:41;98938.78;;;19.71;64.21
65718;BME280;52445;52.466;-1.016;2023-07-31T11:38:12;98931.94;;;19.68;64.51
65718;BME280;52445;52.466;-1.016;2023-07-31T11:40:48;98922.63;;;19.62;64.07
65718;BME280;52445;52.466;-1.016;2023-07-31T11:43:15;98932.31;;;19.62;64.33
65718;BME280;52445;52.466;-1.016;2023-07-31T11:45:47;98924.78;;;19.56;64.02
65718;BME280;52445;52.466;-1.016;2023-07-31T11:51:01;98908.25;;;19.53;64.20
65718;BME280;52445;52.466;-1.016;2023-07-31T11:53:36;98902.34;;;19.50;64.26
65718;BME280;52445;52.466;-1.016;2023-07-31T11:56:06;98889.22;;;19.50;64.00
65718;BME280;52445;52.466;-1.016;2023-07-31T11:58:34;98881.50;;;19.47;64.13
65718;BME280;52445;52.466;-1.016;2023-07-31T12:01:02;98867.66;;;19.45;64.30
65718;BME280;52445;52.466;-1.016;2023-07-31T12:03:29;98866.78;;;19.44;64.35
65718;BME280;52445;52.466;-1.016;2023-07-31T12:05:58;98865.94;;;19.44;64.32
65718;BME280;52445;52.466;-1.016;2023-07-31T12:08:25;98845.78;;;19.44;64.54
65718;BME280;52445;52.466;-1.016;2023-07-31T12:10:54;98840.53;;;19.44;64.82
65718;BME280;52445;52.466;-1.016;2023-07-31T12:13:23;98844.66;;;19.48;64.19
65718;BME280;52445;52.466;-1.016;2023-07-31T12:15:53;98851.75;;;19.32;64.56
65718;BME280;52445;52.466;-1.016;2023-07-31T12:18:20;98842.22;;;19.45;64.19
65718;BME280;52445;52.466;-1.016;2023-07-31T12:20:53;98843.72;;;19.49;64.34
65718;BME280;52445;52.466;-1.016;2023-07-31T12:23:22;98845.44;;;19.50;64.34
65718;BME280;52445;52.466;-1.016;2023-07-31T12:26:03;98849.19;;;19.46;63.97
65718;BME280;52445;52.466;-1.016;2023-07-31T12:28:34;98846.34;;;19.49;63.90
65718;BME280;52445;52.466;-1.016;2023-07-31T12:31:01;98836.88;;;19.47;64.32
65718;BME280;52445;52.466;-1.016;2023-07-31T12:33:33;98838.66;;;19.46;64.16
65718;BME280;52445;52.466;-1.016;2023-07-31T12:36:01;98832.56;;;19.46;64.58
65718;BME280;52445;52.466;-1.016;2023-07-31T12:38:30;98830.19;;;19.41;64.71
65718;BME280;52445;52.466;-1.016;2023-07-31T12:40:56;98808.56;;;19.37;64.57
65718;BME280;52445;52.466;-1.016;2023-07-31T12:43:23;98790.44;;;19.33;64.56
65718;BME280;52445;52.466;-1.016;2023-07-31T12:45:50;98804.50;;;19.32;64.84
65718;BME280;52445;52.466;-1.016;2023-07-31T12:48:16;98799.25;;;19.32;64.90
65718;BME280;52445;52.466;-1.016;2023-07-31T12:50:43;98779.16;;;19.31;65.15
65718;BME280;52445;52.466;-1.016;2023-07-31T12:53:10;98785.19;;;19.33;65.12
65718;BME280;52445;52.466;-1.016;2023-07-31T12:55:36;98813.97;;;19.34;65.28
65718;BME280;52445;52.466;-1.016;2023-07-31T12:58:03;98857.75;;;19.34;65.38
65718;BME280;52445;52.466;-1.016;2023-07-31T13:00:30;98876.28;;;19.31;65.36
65718;BME280;52445;52.466;-1.016;2023-07-31T13:02:57;98863.53;;;19.24;65.56
65718;BME280;52445;52.466;-1.016;2023-07-31T13:05:24;98825.38;;;19.19;65.34
65718;BME280;52445;52.466;-1.016;2023-07-31T13:07:50;98827.44;;;19.13;65.56
65718;BME280;52445;52.466;-1.016;2023-07-31T13:10:19;98854.69;;;19.11;65.90